createdAt,value
2022-12-04T00:02:16.048Z,7.67
2022-12-04T00:04:42.762Z,9.00
2022-12-04T00:07:09.387Z,8.53
2022-12-04T00:09:36.064Z,7.47
2022-12-04T00:12:02.716Z,8.37
2022-12-04T00:14:29.407Z,9.33
2022-12-04T00:16:56.140Z,7.50
2022-12-04T00:19:22.897Z,8.27
2022-12-04T00:21:50.803Z,7.80
2022-12-04T00:24:17.538Z,8.73
2022-12-04T00:26:44.256Z,8.63
2022-12-04T00:29:10.911Z,8.07
2022-12-04T00:31:37.730Z,7.27
2022-12-04T00:34:07.939Z,8.33
2022-12-04T00:36:35.031Z,9.47
2022-12-04T00:39:02.148Z,9.10
2022-12-04T00:41:30.498Z,8.83
2022-12-04T00:43:57.230Z,7.53
2022-12-04T00:46:24.249Z,8.10
2022-12-04T00:48:51.550Z,7.77
2022-12-04T00:51:24.892Z,9.07
2022-12-04T00:53:53.000Z,7.90
2022-12-04T00:56:23.104Z,9.90
2022-12-04T00:58:52.919Z,8.10
2022-12-04T01:01:20.901Z,7.70
2022-12-04T01:03:48.709Z,8.10
2022-12-04T01:06:24.844Z,7.63
2022-12-04T01:08:53.819Z,8.00
2022-12-04T01:11:22.320Z,7.23
2022-12-04T01:13:48.988Z,8.37
2022-12-04T01:16:28.338Z,7.90
2022-12-04T01:18:55.186Z,7.87
2022-12-04T01:21:22.239Z,7.83
2022-12-04T01:23:49.308Z,8.00
2022-12-04T01:26:16.090Z,7.13
2022-12-04T01:28:42.817Z,8.53
2022-12-04T01:31:15.825Z,7.03
2022-12-04T01:33:42.961Z,8.43
2022-12-04T01:36:13.341Z,7.70
2022-12-04T01:38:40.468Z,7.47
2022-12-04T01:41:08.331Z,7.40
2022-12-04T01:43:37.088Z,8.10
2022-12-04T01:46:04.787Z,7.07
2022-12-04T01:48:34.406Z,8.00
2022-12-04T01:51:16.566Z,8.17
2022-12-04T01:53:49.040Z,7.00
2022-12-04T01:56:17.315Z,7.63
2022-12-04T01:58:48.487Z,8.07
2022-12-04T02:01:15.209Z,8.00
2022-12-04T02:03:41.911Z,7.70
2022-12-04T02:06:08.563Z,7.60
2022-12-04T02:08:36.485Z,5.90
2022-12-04T02:11:09.153Z,7.27
2022-12-04T02:14:07.691Z,8.00
2022-12-04T02:16:40.226Z,7.40
2022-12-04T02:19:17.549Z,7.50
2022-12-04T02:21:49.490Z,7.60
2022-12-04T02:24:46.743Z,8.00
2022-12-04T02:28:11.787Z,6.43
2022-12-04T02:30:42.464Z,6.93
2022-12-04T02:33:20.712Z,7.60
2022-12-04T02:35:55.479Z,7.40
2022-12-04T02:38:42.004Z,7.00
2022-12-04T02:41:17.513Z,7.43
2022-12-04T02:43:48.968Z,8.97
2022-12-04T02:46:24.205Z,8.47
2022-12-04T02:48:55.448Z,7.00
2022-12-04T02:51:24.888Z,8.43
2022-12-04T02:53:56.838Z,7.83
2022-12-04T02:56:28.107Z,7.00
2022-12-04T02:59:29.528Z,8.27
2022-12-04T03:02:01.155Z,8.37
2022-12-04T03:04:30.718Z,9.73
2022-12-04T03:07:02.482Z,7.93
2022-12-04T03:09:45.184Z,8.67
2022-12-04T03:12:21.257Z,8.30
2022-12-04T03:15:28.427Z,8.73
2022-12-04T03:18:01.163Z,7.37
2022-12-04T03:20:31.515Z,8.50
2022-12-04T03:23:11.575Z,6.53
2022-12-04T03:25:56.276Z,8.47
2022-12-04T03:28:33.707Z,7.27
2022-12-04T03:31:08.051Z,7.40
2022-12-04T03:33:46.200Z,6.77
2022-12-04T03:36:12.903Z,8.30
2022-12-04T03:38:47.407Z,8.60
2022-12-04T03:41:36.659Z,6.87
2022-12-04T03:44:26.074Z,8.03
2022-12-04T03:47:01.684Z,8.00
2022-12-04T03:49:50.993Z,8.03
2022-12-04T03:52:27.466Z,8.47
2022-12-04T03:55:01.238Z,6.60
2022-12-04T03:57:36.462Z,6.60
2022-12-04T04:00:19.201Z,7.53
2022-12-04T04:03:09.685Z,8.17
2022-12-04T04:05:41.293Z,8.50
2022-12-04T04:08:26.165Z,6.50
2022-12-04T04:10:57.795Z,6.50
2022-12-04T04:13:55.113Z,9.43
2022-12-04T04:16:43.284Z,7.27
2022-12-04T04:19:32.441Z,7.47
2022-12-04T04:22:21.561Z,6.57
2022-12-04T04:24:59.476Z,8.10
2022-12-04T04:27:26.053Z,6.70
2022-12-04T04:29:53.036Z,7.40
2022-12-04T04:32:29.016Z,8.40
2022-12-04T04:35:14.399Z,7.43
2022-12-04T04:37:49.637Z,7.63
2022-12-04T04:40:25.617Z,8.30
2022-12-04T04:43:16.064Z,7.53
2022-12-04T04:46:05.252Z,7.70
2022-12-04T04:48:40.727Z,8.00
2022-12-04T04:51:07.976Z,8.90
2022-12-04T04:53:39.146Z,7.73
2022-12-04T04:56:07.361Z,9.33
2022-12-04T04:58:34.143Z,6.90
2022-12-04T05:01:05.261Z,7.27
2022-12-04T05:03:32.317Z,8.50
2022-12-04T05:05:59.394Z,7.07
2022-12-04T05:08:26.048Z,7.87
2022-12-04T05:10:52.744Z,7.50
2022-12-04T05:13:20.517Z,8.43
2022-12-04T05:15:58.787Z,6.60
2022-12-04T05:18:25.881Z,7.70
2022-12-04T05:20:52.579Z,8.27
2022-12-04T05:23:19.309Z,7.23
2022-12-04T05:25:46.094Z,7.43
2022-12-04T05:28:12.783Z,7.20
2022-12-04T05:30:39.431Z,8.17
2022-12-04T05:33:06.037Z,7.90
2022-12-04T05:35:32.856Z,7.03
2022-12-04T05:37:59.441Z,6.80
2022-12-04T05:40:26.049Z,7.13
2022-12-04T05:42:52.631Z,7.00
2022-12-04T05:45:22.109Z,7.20
2022-12-04T05:47:48.725Z,8.80
2022-12-04T05:50:15.293Z,8.00
2022-12-04T05:52:42.373Z,7.07
2022-12-04T05:55:09.158Z,8.60
2022-12-04T05:57:35.767Z,6.73
2022-12-04T06:00:02.443Z,8.20
2022-12-04T06:02:38.017Z,6.67
2022-12-04T06:05:05.191Z,8.23
2022-12-04T06:07:31.869Z,8.27
2022-12-04T06:09:58.628Z,9.33
2022-12-04T06:12:25.265Z,7.47
2022-12-04T06:14:51.908Z,8.33
2022-12-04T06:17:18.725Z,7.10
2022-12-04T06:19:45.615Z,7.77
2022-12-04T06:22:13.989Z,7.70
2022-12-04T06:24:40.865Z,9.80
2022-12-04T06:29:54.417Z,8.90
2022-12-04T06:32:22.172Z,8.27
2022-12-04T06:34:53.632Z,8.33
2022-12-04T06:37:25.100Z,8.37
2022-12-04T06:39:51.709Z,8.90
2022-12-04T06:42:18.366Z,7.43
2022-12-04T06:44:45.021Z,7.73
2022-12-04T06:47:11.666Z,7.77
2022-12-04T06:49:38.328Z,7.53
2022-12-04T06:52:04.958Z,7.70
2022-12-04T06:54:31.564Z,7.80
2022-12-04T06:56:58.168Z,7.60
2022-12-04T06:59:24.739Z,7.90
2022-12-04T07:01:51.404Z,8.23
2022-12-04T07:04:18.016Z,7.50
2022-12-04T07:06:44.659Z,7.90
2022-12-04T07:09:15.266Z,8.33
2022-12-04T07:11:42.801Z,7.53
2022-12-04T07:14:10.276Z,8.60
2022-12-04T07:16:41.093Z,7.60
2022-12-04T07:19:09.878Z,7.50
2022-12-04T07:21:36.513Z,8.30
2022-12-04T07:24:03.491Z,7.67
2022-12-04T07:26:30.966Z,9.10
2022-12-04T07:28:58.926Z,8.93
2022-12-04T07:31:27.546Z,8.23
2022-12-04T07:33:54.679Z,7.67
2022-12-04T07:36:23.377Z,9.90
2022-12-04T07:38:50.511Z,9.70
2022-12-04T07:41:18.987Z,10.63
2022-12-04T07:43:45.697Z,8.30
2022-12-04T07:46:15.928Z,7.43
2022-12-04T07:48:42.993Z,8.03
2022-12-04T07:51:17.847Z,7.87
2022-12-04T07:53:44.784Z,6.80
2022-12-04T07:56:12.944Z,8.60
2022-12-04T07:58:40.312Z,8.07
2022-12-04T08:01:09.610Z,7.10
2022-12-04T08:03:40.866Z,7.00
2022-12-04T08:06:10.870Z,7.53
2022-12-04T08:08:37.897Z,8.43
2022-12-04T08:11:13.923Z,7.27
2022-12-04T08:13:40.606Z,7.90
2022-12-04T08:16:09.087Z,7.90
2022-12-04T08:18:35.759Z,7.80
2022-12-04T08:21:14.745Z,7.37
2022-12-04T08:23:42.810Z,7.87
2022-12-04T08:26:10.556Z,8.13
2022-12-04T08:28:37.205Z,8.17
2022-12-04T08:31:22.109Z,7.90
2022-12-04T08:33:51.375Z,9.10
2022-12-04T08:36:20.371Z,7.17
2022-12-04T08:38:47.742Z,8.27
2022-12-04T08:41:17.497Z,8.20
2022-12-04T08:43:46.403Z,7.93
2022-12-04T08:46:16.062Z,8.23
2022-12-04T08:48:43.139Z,7.67
2022-12-04T08:51:30.309Z,7.77
2022-12-04T08:53:59.689Z,8.30
2022-12-04T08:56:27.908Z,9.00
2022-12-04T08:58:56.232Z,9.27
2022-12-04T09:01:25.731Z,8.50
2022-12-04T09:03:52.490Z,7.27
2022-12-04T09:06:19.851Z,8.47
2022-12-04T09:08:46.539Z,6.23
2022-12-04T09:11:18.890Z,6.83
2022-12-04T09:13:46.081Z,7.37
2022-12-04T09:16:18.777Z,6.70
2022-12-04T09:18:45.958Z,8.10
2022-12-04T09:21:14.858Z,8.27
2022-12-04T09:23:42.088Z,7.63
2022-12-04T09:26:28.359Z,8.17
2022-12-04T09:28:56.267Z,7.43
2022-12-04T09:31:24.544Z,8.43
2022-12-04T09:33:51.533Z,8.17
2022-12-04T09:36:18.501Z,7.60
2022-12-04T09:38:47.951Z,7.70
2022-12-04T09:41:36.453Z,8.30
2022-12-04T09:44:17.245Z,8.27
2022-12-04T09:47:21.590Z,7.87
2022-12-04T09:49:57.399Z,8.50
2022-12-04T09:52:36.625Z,7.80
2022-12-04T09:55:05.635Z,8.00
2022-12-04T09:57:35.201Z,8.40
2022-12-04T10:00:04.643Z,6.20
2022-12-04T10:02:42.552Z,6.23
2022-12-04T10:06:03.162Z,7.93
2022-12-04T10:08:35.501Z,7.50
2022-12-04T10:11:32.266Z,7.20
2022-12-04T10:14:12.829Z,6.97
2022-12-04T10:16:55.733Z,6.20
2022-12-04T10:19:34.621Z,7.40
2022-12-04T10:22:20.763Z,7.73
2022-12-04T10:24:54.240Z,7.13
2022-12-04T10:27:30.718Z,8.10
2022-12-04T10:30:03.495Z,7.70
2022-12-04T10:32:33.718Z,6.23
2022-12-04T10:35:19.236Z,8.80
2022-12-04T10:37:48.390Z,8.67
2022-12-04T10:40:41.353Z,7.57
2022-12-04T10:43:29.351Z,7.90
2022-12-04T10:45:58.711Z,8.10
2022-12-04T10:48:36.005Z,7.43
2022-12-04T10:51:02.714Z,7.53
2022-12-04T10:53:37.084Z,7.17
2022-12-04T10:56:09.671Z,8.13
2022-12-04T10:58:36.267Z,8.17
2022-12-04T11:01:06.397Z,7.50
2022-12-04T11:03:34.325Z,9.47
2022-12-04T11:06:04.689Z,9.03
2022-12-04T11:08:53.407Z,8.10
2022-12-04T11:11:39.229Z,7.60
2022-12-04T11:14:18.195Z,8.70
2022-12-04T11:16:48.370Z,8.87
2022-12-04T11:19:24.068Z,7.63
2022-12-04T11:21:52.763Z,8.77
2022-12-04T11:24:23.227Z,7.63
2022-12-04T11:26:51.105Z,8.27
2022-12-04T11:29:20.930Z,7.43
2022-12-04T11:31:50.237Z,8.30
2022-12-04T11:34:23.032Z,8.63
2022-12-04T11:36:56.372Z,9.20
2022-12-04T11:39:32.152Z,9.50
2022-12-04T11:42:17.092Z,8.00
2022-12-04T11:44:57.334Z,8.83
2022-12-04T11:47:27.684Z,9.97
2022-12-04T11:50:19.007Z,8.70
2022-12-04T11:52:59.321Z,7.80
2022-12-04T11:55:35.235Z,9.57
2022-12-04T11:58:12.949Z,10.33
2022-12-04T12:00:57.307Z,8.07
2022-12-04T12:03:43.741Z,10.03
2022-12-04T12:06:23.920Z,9.23
2022-12-04T12:08:53.557Z,8.43
2022-12-04T12:11:38.925Z,9.87
2022-12-04T12:14:19.161Z,9.40
2022-12-04T12:17:14.036Z,8.97
2022-12-04T12:19:58.227Z,8.43
2022-12-04T12:22:49.491Z,8.00
2022-12-04T12:25:21.223Z,8.90
2022-12-04T12:28:29.672Z,8.87
2022-12-04T12:31:21.294Z,9.07
2022-12-04T12:34:03.407Z,9.73
2022-12-04T12:36:40.015Z,10.30
2022-12-04T12:39:20.028Z,10.13
2022-12-04T12:41:56.737Z,9.80
2022-12-04T12:44:34.634Z,10.27
2022-12-04T12:47:08.674Z,11.13
2022-12-04T12:49:45.154Z,10.07
2022-12-04T12:52:16.364Z,10.53
2022-12-04T12:54:48.297Z,10.73
2022-12-04T12:58:13.667Z,9.13
2022-12-04T13:01:22.595Z,8.73
2022-12-04T13:04:03.531Z,8.77
2022-12-04T13:06:38.083Z,9.87
2022-12-04T13:09:29.811Z,9.63
2022-12-04T13:12:02.560Z,9.00
2022-12-04T13:14:32.192Z,9.70
2022-12-04T13:17:02.549Z,10.70
2022-12-04T13:19:33.977Z,10.17
2022-12-04T13:22:21.857Z,8.83
2022-12-04T13:25:06.704Z,10.27
2022-12-04T13:28:10.629Z,9.67
2022-12-04T13:30:51.881Z,10.10
2022-12-04T13:33:29.384Z,10.43
2022-12-04T13:36:14.783Z,9.90
2022-12-04T13:38:58.261Z,9.53
2022-12-04T13:41:28.014Z,10.20
2022-12-04T13:44:01.777Z,9.90
2022-12-04T13:46:39.772Z,8.80
2022-12-04T13:49:13.492Z,10.33
2022-12-04T13:51:42.188Z,9.70
2022-12-04T13:54:11.889Z,9.77
2022-12-04T13:56:44.705Z,9.30
2022-12-04T13:59:30.916Z,9.60
2022-12-04T14:02:05.065Z,8.60
2022-12-04T14:04:46.097Z,9.63
2022-12-04T14:07:31.925Z,9.07
2022-12-04T14:10:04.616Z,9.40
2022-12-04T14:12:36.399Z,9.60
2022-12-04T14:15:22.559Z,12.37
2022-12-04T14:18:16.405Z,10.80
2022-12-04T14:20:47.326Z,11.63
2022-12-04T14:23:19.957Z,11.87
2022-12-04T14:25:46.660Z,12.67
2022-12-04T14:28:25.665Z,11.00
2022-12-04T14:31:03.593Z,13.03
2022-12-04T14:33:32.846Z,11.47
2022-12-04T14:36:11.265Z,12.40
2022-12-04T14:38:38.566Z,10.87
2022-12-04T14:41:05.435Z,15.97
2022-12-04T14:43:39.686Z,17.70
2022-12-04T14:46:18.930Z,18.57
2022-12-04T14:49:19.679Z,12.37
2022-12-04T14:52:04.582Z,12.87
2022-12-04T14:54:43.376Z,13.20
2022-12-04T14:57:43.544Z,12.80
2022-12-04T15:00:20.058Z,11.10
2022-12-04T15:02:49.137Z,11.00
2022-12-04T15:05:29.278Z,14.57
2022-12-04T15:08:02.310Z,13.80
2022-12-04T15:10:50.142Z,11.87
2022-12-04T15:13:34.270Z,13.13
2022-12-04T15:16:20.796Z,12.63
2022-12-04T15:18:55.181Z,13.20
2022-12-04T15:21:24.193Z,13.07
2022-12-04T15:23:50.930Z,13.20
2022-12-04T15:26:20.986Z,12.37
2022-12-04T15:28:52.662Z,11.00
2022-12-04T15:31:24.117Z,11.40
2022-12-04T15:33:56.697Z,12.53
2022-12-04T15:36:42.898Z,11.93
2022-12-04T15:39:21.442Z,12.83
2022-12-04T15:41:48.576Z,11.97
2022-12-04T15:44:29.891Z,12.07
2022-12-04T15:47:00.176Z,11.27
2022-12-04T15:49:31.370Z,12.60
2022-12-04T15:52:14.381Z,11.80
2022-12-04T15:54:56.688Z,11.17
2022-12-04T15:57:35.448Z,13.60
2022-12-04T16:00:05.339Z,11.40
2022-12-04T16:02:35.906Z,14.13
2022-12-04T16:05:21.871Z,13.33
2022-12-04T16:08:01.536Z,13.60
2022-12-04T16:10:35.623Z,12.10
2022-12-04T16:13:04.962Z,12.20
2022-12-04T16:15:38.810Z,13.67
2022-12-04T16:18:07.157Z,13.43
2022-12-04T16:20:36.047Z,13.30
2022-12-04T16:23:03.935Z,13.00
2022-12-04T16:25:31.625Z,13.77
2022-12-04T16:27:59.577Z,14.83
2022-12-04T16:30:27.963Z,12.53
2022-12-04T16:32:54.646Z,14.43
2022-12-04T16:35:21.565Z,14.23
2022-12-04T16:37:48.272Z,15.77
2022-12-04T16:40:15.779Z,15.97
2022-12-04T16:42:44.085Z,19.33
2022-12-04T16:45:31.305Z,14.37
2022-12-04T16:47:58.481Z,15.10
2022-12-04T16:50:26.235Z,13.77
2022-12-04T16:52:53.479Z,14.77
2022-12-04T16:55:29.316Z,16.07
2022-12-04T16:57:55.994Z,15.60
2022-12-04T17:00:22.840Z,14.13
2022-12-04T17:02:49.637Z,16.70
2022-12-04T17:05:24.888Z,15.63
2022-12-04T17:07:51.748Z,15.70
2022-12-04T17:10:23.730Z,16.57
2022-12-04T17:12:54.645Z,17.20
2022-12-04T17:15:21.604Z,15.30
2022-12-04T17:17:48.514Z,16.47
2022-12-04T17:20:17.935Z,16.00
2022-12-04T17:22:44.644Z,14.87
2022-12-04T17:25:12.020Z,15.13
2022-12-04T17:27:39.599Z,16.40
2022-12-04T17:30:07.383Z,15.87
2022-12-04T17:32:37.451Z,15.90
2022-12-04T17:35:06.674Z,16.87
2022-12-04T17:37:34.140Z,18.10
2022-12-04T17:40:00.853Z,17.73
2022-12-04T17:42:27.750Z,15.97
2022-12-04T17:44:54.507Z,17.40
2022-12-04T17:47:21.407Z,17.20
2022-12-04T17:49:48.122Z,19.00
2022-12-04T17:52:14.832Z,16.40
2022-12-04T17:54:41.529Z,17.13
2022-12-04T17:57:08.292Z,17.30
2022-12-04T17:59:35.019Z,14.80
2022-12-04T18:02:01.779Z,16.00
2022-12-04T18:04:28.493Z,17.53
2022-12-04T18:06:56.444Z,17.70
2022-12-04T18:09:23.330Z,17.90
2022-12-04T18:11:50.041Z,16.70
2022-12-04T18:14:19.271Z,17.57
2022-12-04T18:16:52.844Z,17.53
2022-12-04T18:19:22.373Z,18.57
2022-12-04T18:21:49.689Z,18.00
2022-12-04T18:24:17.847Z,18.00
2022-12-04T18:26:48.097Z,18.03
2022-12-04T18:29:26.020Z,19.37
2022-12-04T18:31:53.417Z,19.73
2022-12-04T18:34:20.450Z,19.63
2022-12-04T18:36:50.255Z,20.83
2022-12-04T18:39:19.696Z,20.37
2022-12-04T18:41:47.526Z,19.17
2022-12-04T18:44:15.185Z,17.73
2022-12-04T18:46:42.600Z,21.47
2022-12-04T18:49:10.655Z,19.60
2022-12-04T18:51:37.820Z,19.20
2022-12-04T18:54:08.540Z,18.87
2022-12-04T18:56:35.893Z,21.53
2022-12-04T18:59:14.901Z,20.87
2022-12-04T19:01:42.386Z,22.17
2022-12-04T19:04:11.270Z,21.43
2022-12-04T19:06:43.388Z,20.77
2022-12-04T19:09:17.224Z,19.77
2022-12-04T19:11:45.218Z,20.90
2022-12-04T19:14:22.407Z,21.03
2022-12-04T19:16:50.423Z,21.97
2022-12-04T19:19:17.841Z,21.03
2022-12-04T19:21:44.760Z,18.93
2022-12-04T19:24:12.397Z,19.23
2022-12-04T19:26:39.801Z,21.97
2022-12-04T19:29:07.196Z,20.13
2022-12-04T19:31:36.401Z,22.63
2022-12-04T19:34:04.255Z,20.33
2022-12-04T19:36:33.096Z,20.77
2022-12-04T19:39:01.061Z,19.67
2022-12-04T19:41:37.169Z,17.47
2022-12-04T19:44:20.030Z,19.03
2022-12-04T19:46:51.150Z,19.13
2022-12-04T19:49:17.840Z,19.83
2022-12-04T19:51:44.693Z,20.60
2022-12-04T19:54:13.041Z,22.10
2022-12-04T19:56:39.889Z,20.03
2022-12-04T19:59:08.057Z,23.70
2022-12-04T20:01:35.730Z,22.20
2022-12-04T20:04:06.431Z,21.63
2022-12-04T20:06:51.268Z,23.20
2022-12-04T20:09:23.610Z,21.37
2022-12-04T20:11:50.429Z,20.80
2022-12-04T20:14:17.575Z,20.13
2022-12-04T20:16:44.895Z,20.60
2022-12-04T20:19:15.466Z,24.27
2022-12-04T20:21:42.816Z,22.87
2022-12-04T20:24:12.235Z,21.10
2022-12-04T20:26:41.057Z,22.27
2022-12-04T20:29:10.864Z,20.30
2022-12-04T20:31:39.853Z,19.50
2022-12-04T20:34:10.292Z,21.80
2022-12-04T20:36:42.945Z,22.90
2022-12-04T20:39:11.423Z,20.07
2022-12-04T20:41:38.967Z,22.63
2022-12-04T20:44:08.053Z,22.27
2022-12-04T20:46:39.375Z,20.60
2022-12-04T20:49:08.648Z,24.20
2022-12-04T20:51:40.680Z,23.57
2022-12-04T20:54:09.238Z,22.00
2022-12-04T20:56:37.608Z,23.40
2022-12-04T20:59:11.311Z,22.80
2022-12-04T21:01:38.321Z,23.33
2022-12-04T21:04:06.277Z,22.50
2022-12-04T21:06:36.031Z,23.77
2022-12-04T21:09:06.286Z,24.10
2022-12-04T21:11:35.806Z,22.77
2022-12-04T21:14:23.548Z,21.47
2022-12-04T21:16:50.774Z,21.13
2022-12-04T21:19:22.325Z,22.37
2022-12-04T21:21:49.860Z,24.03
2022-12-04T21:24:18.784Z,22.20
2022-12-04T21:26:45.553Z,21.30
2022-12-04T21:29:12.836Z,20.60
2022-12-04T21:31:39.942Z,22.27
2022-12-04T21:34:10.355Z,22.37
2022-12-04T21:36:37.097Z,21.23
2022-12-04T21:39:04.527Z,23.43
2022-12-04T21:41:49.718Z,22.30
2022-12-04T21:44:18.583Z,21.27
2022-12-04T21:46:46.354Z,20.90
2022-12-04T21:49:13.891Z,23.47
2022-12-04T21:51:56.860Z,24.00
2022-12-04T21:54:25.263Z,21.53
2022-12-04T21:56:51.995Z,23.10
2022-12-04T21:59:18.739Z,22.80
2022-12-04T22:01:49.061Z,21.90
2022-12-04T22:04:16.056Z,23.07
2022-12-04T22:06:45.337Z,22.17
2022-12-04T22:09:13.172Z,20.80
2022-12-04T22:11:44.305Z,20.13
2022-12-04T22:14:14.081Z,24.27
2022-12-04T22:16:43.366Z,20.50
2022-12-04T22:19:12.479Z,24.53
2022-12-04T22:21:40.174Z,23.30
2022-12-04T22:24:07.401Z,22.53
2022-12-04T22:26:34.297Z,22.67
2022-12-04T22:29:01.224Z,22.90
2022-12-04T22:31:29.889Z,24.43
2022-12-04T22:33:59.296Z,24.63
2022-12-04T22:36:31.651Z,23.43
2022-12-04T22:39:09.811Z,21.50
2022-12-04T22:41:37.484Z,22.07
2022-12-04T22:44:04.874Z,21.33
2022-12-04T22:46:32.280Z,21.10
2022-12-04T22:48:59.510Z,19.67
2022-12-04T22:51:27.338Z,20.60
2022-12-04T22:53:56.508Z,20.03
2022-12-04T22:56:32.054Z,17.20
2022-12-04T22:59:01.578Z,15.40
2022-12-04T23:01:31.902Z,17.50
2022-12-04T23:03:59.736Z,16.60
2022-12-04T23:06:29.872Z,19.73
2022-12-04T23:09:00.345Z,17.00
2022-12-04T23:11:28.131Z,15.80
2022-12-04T23:14:01.361Z,16.57
2022-12-04T23:16:30.791Z,16.07
2022-12-04T23:18:58.087Z,14.33
2022-12-04T23:21:25.414Z,15.27
2022-12-04T23:23:54.404Z,16.73
2022-12-04T23:26:25.370Z,16.70
2022-12-04T23:28:52.377Z,16.40
2022-12-04T23:31:19.541Z,14.37
2022-12-04T23:33:46.305Z,18.23
2022-12-04T23:36:14.337Z,16.33
2022-12-04T23:38:42.633Z,15.13
2022-12-04T23:41:25.705Z,15.90
2022-12-04T23:43:53.598Z,16.80
2022-12-04T23:46:27.584Z,14.27
2022-12-04T23:48:55.184Z,15.97
2022-12-04T23:51:22.271Z,15.63
2022-12-04T23:53:49.415Z,15.40
2022-12-04T23:56:22.771Z,15.57
2022-12-04T23:58:51.463Z,15.47
